sensor_id;sensor_type;location;lat;lon;timestamp;temperature;humidity
12815;DHT22;6472;52.328;13.070;2022-08-23T00:01:37;16.00;99.90
12815;DHT22;6472;52.328;13.070;2022-08-23T00:04:08;16.10;99.90
12815;DHT22;6472;52.328;13.070;2022-08-23T00:06:37;16.00;99.90
12815;DHT22;6472;52.328;13.070;2022-08-23T00:09:06;16.10;99.90
12815;DHT22;6472;52.328;13.070;2022-08-23T00:11:38;16.00;99.90
12815;DHT22;6472;52.328;13.070;2022-08-23T00:14:09;16.00;99.90
12815;DHT22;6472;52.328;13.070;2022-08-23T00:16:39;16.00;99.90
12815;DHT22;6472;52.328;13.070;2022-08-23T00:19:10;16.00;99.90
12815;DHT22;6472;52.328;13.070;2022-08-23T00:21:39;16.00;99.90
12815;DHT22;6472;52.328;13.070;2022-08-23T00:24:08;16.00;99.90
12815;DHT22;6472;52.328;13.070;2022-08-23T00:26:58;15.90;99.90
12815;DHT22;6472;52.328;13.070;2022-08-23T00:29:30;16.00;99.90
12815;DHT22;6472;52.328;13.070;2022-08-23T00:31:59;16.00;99.90
12815;DHT22;6472;52.328;13.070;2022-08-23T00:34:28;16.00;99.90
12815;DHT22;6472;52.328;13.070;2022-08-23T00:36:57;16.00;99.90
12815;DHT22;6472;52.328;13.070;2022-08-23T00:39:25;16.00;99.90
12815;DHT22;6472;52.328;13.070;2022-08-23T00:41:59;16.00;99.90
12815;DHT22;6472;52.328;13.070;2022-08-23T00:44:31;16.00;99.90
12815;DHT22;6472;52.328;13.070;2022-08-23T00:47:22;15.90;99.90
12815;DHT22;6472;52.328;13.070;2022-08-23T00:50:16;15.90;99.90
12815;DHT22;6472;52.328;13.070;2022-08-23T00:52:57;15.90;99.90
12815;DHT22;6472;52.328;13.070;2022-08-23T00:55:30;15.90;99.90
12815;DHT22;6472;52.328;13.070;2022-08-23T00:58:00;15.90;99.90
12815;DHT22;6472;52.328;13.070;2022-08-23T01:00:29;15.90;99.90
12815;DHT22;6472;52.328;13.070;2022-08-23T01:02:57;15.90;99.90
12815;DHT22;6472;52.328;13.070;2022-08-23T01:05:32;15.90;99.90
12815;DHT22;6472;52.328;13.070;2022-08-23T01:08:03;15.90;99.90
12815;DHT22;6472;52.328;13.070;2022-08-23T01:10:34;15.90;99.90
12815;DHT22;6472;52.328;13.070;2022-08-23T01:13:10;15.90;99.90
12815;DHT22;6472;52.328;13.070;2022-08-23T01:15:41;15.90;99.90
12815;DHT22;6472;52.328;13.070;2022-08-23T01:18:14;15.90;99.90
12815;DHT22;6472;52.328;13.070;2022-08-23T01:20:52;15.80;99.90
12815;DHT22;6472;52.328;13.070;2022-08-23T01:23:28;15.80;99.90
12815;DHT22;6472;52.328;13.070;2022-08-23T01:25:56;15.80;99.90
12815;DHT22;6472;52.328;13.070;2022-08-23T01:28:25;15.80;99.90
12815;DHT22;6472;52.328;13.070;2022-08-23T01:30:53;15.90;99.90
12815;DHT22;6472;52.328;13.070;2022-08-23T01:33:21;15.90;99.90
12815;DHT22;6472;52.328;13.070;2022-08-23T01:35:51;15.90;99.90
12815;DHT22;6472;52.328;13.070;2022-08-23T01:38:21;15.90;99.90
12815;DHT22;6472;52.328;13.070;2022-08-23T01:40:52;15.90;99.90
12815;DHT22;6472;52.328;13.070;2022-08-23T01:43:21;15.90;99.90
12815;DHT22;6472;52.328;13.070;2022-08-23T01:45:52;15.90;99.90
12815;DHT22;6472;52.328;13.070;2022-08-23T01:48:21;15.90;99.90
12815;DHT22;6472;52.328;13.070;2022-08-23T01:50:50;15.90;99.90
12815;DHT22;6472;52.328;13.070;2022-08-23T01:53:18;15.80;99.90
12815;DHT22;6472;52.328;13.070;2022-08-23T01:55:46;15.80;99.90
12815;DHT22;6472;52.328;13.070;2022-08-23T01:58:15;15.80;99.90
12815;DHT22;6472;52.328;13.070;2022-08-23T02:00:43;15.80;99.90
12815;DHT22;6472;52.328;13.070;2022-08-23T02:03:12;15.80;99.90
12815;DHT22;6472;52.328;13.070;2022-08-23T02:05:41;15.80;99.90
12815;DHT22;6472;52.328;13.070;2022-08-23T02:08:12;15.80;99.90
12815;DHT22;6472;52.328;13.070;2022-08-23T02:10:58;15.80;99.90
12815;DHT22;6472;52.328;13.070;2022-08-23T02:13:27;15.80;99.90
12815;DHT22;6472;52.328;13.070;2022-08-23T02:15:56;15.80;99.90
12815;DHT22;6472;52.328;13.070;2022-08-23T02:18:25;15.80;99.90
12815;DHT22;6472;52.328;13.070;2022-08-23T02:20:53;15.80;99.90
12815;DHT22;6472;52.328;13.070;2022-08-23T02:23:21;15.80;99.90
12815;DHT22;6472;52.328;13.070;2022-08-23T02:25:50;15.80;99.90
12815;DHT22;6472;52.328;13.070;2022-08-23T02:28:19;15.80;99.90
12815;DHT22;6472;52.328;13.070;2022-08-23T02:30:50;15.90;99.90
12815;DHT22;6472;52.328;13.070;2022-08-23T02:33:19;15.90;99.90
12815;DHT22;6472;52.328;13.070;2022-08-23T02:35:48;15.80;99.90
12815;DHT22;6472;52.328;13.070;2022-08-23T02:38:17;15.80;99.90
12815;DHT22;6472;52.328;13.070;2022-08-23T02:40:46;15.80;99.90
12815;DHT22;6472;52.328;13.070;2022-08-23T02:43:27;15.90;99.90
12815;DHT22;6472;52.328;13.070;2022-08-23T02:45:57;15.90;99.90
12815;DHT22;6472;52.328;13.070;2022-08-23T02:48:25;15.80;99.90
12815;DHT22;6472;52.328;13.070;2022-08-23T02:50:58;15.90;99.90
12815;DHT22;6472;52.328;13.070;2022-08-23T02:53:26;15.80;99.90
12815;DHT22;6472;52.328;13.070;2022-08-23T02:55:55;15.80;99.90
12815;DHT22;6472;52.328;13.070;2022-08-23T02:58:24;15.80;99.90
12815;DHT22;6472;52.328;13.070;2022-08-23T03:00:52;15.80;99.90
12815;DHT22;6472;52.328;13.070;2022-08-23T03:03:22;15.90;99.90
12815;DHT22;6472;52.328;13.070;2022-08-23T03:05:51;15.90;99.90
12815;DHT22;6472;52.328;13.070;2022-08-23T03:08:22;15.90;99.90
12815;DHT22;6472;52.328;13.070;2022-08-23T03:10:51;15.90;99.90
12815;DHT22;6472;52.328;13.070;2022-08-23T03:13:20;15.90;99.90
12815;DHT22;6472;52.328;13.070;2022-08-23T03:15:48;15.90;99.90
12815;DHT22;6472;52.328;13.070;2022-08-23T03:18:16;15.90;99.90
12815;DHT22;6472;52.328;13.070;2022-08-23T03:20:48;15.90;99.90
12815;DHT22;6472;52.328;13.070;2022-08-23T03:23:16;15.90;99.90
12815;DHT22;6472;52.328;13.070;2022-08-23T03:25:44;15.90;99.90
12815;DHT22;6472;52.328;13.070;2022-08-23T03:28:12;15.90;99.90
12815;DHT22;6472;52.328;13.070;2022-08-23T03:30:40;15.90;99.90
12815;DHT22;6472;52.328;13.070;2022-08-23T03:33:08;15.90;99.90
12815;DHT22;6472;52.328;13.070;2022-08-23T03:35:36;15.90;99.90
12815;DHT22;6472;52.328;13.070;2022-08-23T03:38:06;15.90;99.90
12815;DHT22;6472;52.328;13.070;2022-08-23T03:40:34;15.90;99.90
12815;DHT22;6472;52.328;13.070;2022-08-23T03:43:03;15.90;99.90
12815;DHT22;6472;52.328;13.070;2022-08-23T03:45:31;15.80;99.90
12815;DHT22;6472;52.328;13.070;2022-08-23T03:47:59;15.80;99.90
12815;DHT22;6472;52.328;13.070;2022-08-23T03:50:28;15.80;99.90
12815;DHT22;6472;52.328;13.070;2022-08-23T03:52:56;15.90;99.90
12815;DHT22;6472;52.328;13.070;2022-08-23T03:55:25;15.90;99.90
12815;DHT22;6472;52.328;13.070;2022-08-23T03:57:53;15.90;99.90
12815;DHT22;6472;52.328;13.070;2022-08-23T04:00:22;15.90;99.90
12815;DHT22;6472;52.328;13.070;2022-08-23T04:02:50;15.80;99.90
12815;DHT22;6472;52.328;13.070;2022-08-23T04:05:18;15.80;99.90
12815;DHT22;6472;52.328;13.070;2022-08-23T04:07:47;15.80;99.90
12815;DHT22;6472;52.328;13.070;2022-08-23T04:10:17;15.80;99.90
12815;DHT22;6472;52.328;13.070;2022-08-23T04:12:46;15.80;99.90
12815;DHT22;6472;52.328;13.070;2022-08-23T04:15:15;15.80;99.90
12815;DHT22;6472;52.328;13.070;2022-08-23T04:17:44;15.80;99.90
12815;DHT22;6472;52.328;13.070;2022-08-23T04:20:12;15.80;99.90
12815;DHT22;6472;52.328;13.070;2022-08-23T04:22:41;15.80;99.90
12815;DHT22;6472;52.328;13.070;2022-08-23T04:25:11;15.80;99.90
12815;DHT22;6472;52.328;13.070;2022-08-23T04:28:02;15.90;99.90
12815;DHT22;6472;52.328;13.070;2022-08-23T04:30:30;15.90;99.90
12815;DHT22;6472;52.328;13.070;2022-08-23T04:32:59;15.90;99.90
12815;DHT22;6472;52.328;13.070;2022-08-23T04:35:28;15.90;99.90
12815;DHT22;6472;52.328;13.070;2022-08-23T04:37:56;16.00;99.90
12815;DHT22;6472;52.328;13.070;2022-08-23T04:40:24;16.00;99.90
12815;DHT22;6472;52.328;13.070;2022-08-23T04:43:07;16.00;99.90
12815;DHT22;6472;52.328;13.070;2022-08-23T04:45:37;16.00;99.90
12815;DHT22;6472;52.328;13.070;2022-08-23T04:48:06;16.00;99.90
12815;DHT22;6472;52.328;13.070;2022-08-23T04:50:38;16.00;99.90
12815;DHT22;6472;52.328;13.070;2022-08-23T04:53:06;16.10;99.90
12815;DHT22;6472;52.328;13.070;2022-08-23T04:55:34;16.10;99.90
12815;DHT22;6472;52.328;13.070;2022-08-23T04:58:03;16.10;99.90
12815;DHT22;6472;52.328;13.070;2022-08-23T05:00:33;16.20;99.90
12815;DHT22;6472;52.328;13.070;2022-08-23T05:03:01;16.20;99.90
12815;DHT22;6472;52.328;13.070;2022-08-23T05:05:30;16.20;99.90
12815;DHT22;6472;52.328;13.070;2022-08-23T05:07:59;16.30;99.90
12815;DHT22;6472;52.328;13.070;2022-08-23T05:10:27;16.30;99.90
12815;DHT22;6472;52.328;13.070;2022-08-23T05:12:55;16.30;99.90
12815;DHT22;6472;52.328;13.070;2022-08-23T05:15:23;16.30;99.90
12815;DHT22;6472;52.328;13.070;2022-08-23T05:17:53;16.40;99.90
12815;DHT22;6472;52.328;13.070;2022-08-23T05:20:21;16.50;99.90
12815;DHT22;6472;52.328;13.070;2022-08-23T05:22:49;16.50;99.90
12815;DHT22;6472;52.328;13.070;2022-08-23T05:25:17;16.60;99.90
12815;DHT22;6472;52.328;13.070;2022-08-23T05:27:45;16.60;99.90
12815;DHT22;6472;52.328;13.070;2022-08-23T05:30:13;16.70;99.90
12815;DHT22;6472;52.328;13.070;2022-08-23T05:32:42;16.70;99.90
12815;DHT22;6472;52.328;13.070;2022-08-23T05:35:11;16.80;99.90
12815;DHT22;6472;52.328;13.070;2022-08-23T05:37:40;16.90;99.90
12815;DHT22;6472;52.328;13.070;2022-08-23T05:40:09;17.00;99.90
12815;DHT22;6472;52.328;13.070;2022-08-23T05:42:37;17.00;99.90
12815;DHT22;6472;52.328;13.070;2022-08-23T05:45:06;17.10;99.90
12815;DHT22;6472;52.328;13.070;2022-08-23T05:47:35;17.20;99.90
12815;DHT22;6472;52.328;13.070;2022-08-23T05:50:03;17.30;99.90
12815;DHT22;6472;52.328;13.070;2022-08-23T05:52:33;17.40;99.90
12815;DHT22;6472;52.328;13.070;2022-08-23T05:55:01;17.50;99.90
12815;DHT22;6472;52.328;13.070;2022-08-23T05:57:30;17.60;99.90
12815;DHT22;6472;52.328;13.070;2022-08-23T05:59:58;17.60;99.90
12815;DHT22;6472;52.328;13.070;2022-08-23T06:02:26;17.70;99.90
12815;DHT22;6472;52.328;13.070;2022-08-23T06:04:54;17.70;99.90
12815;DHT22;6472;52.328;13.070;2022-08-23T06:07:23;17.70;99.90
12815;DHT22;6472;52.328;13.070;2022-08-23T06:09:52;17.80;99.90
12815;DHT22;6472;52.328;13.070;2022-08-23T06:12:21;17.80;99.90
12815;DHT22;6472;52.328;13.070;2022-08-23T06:14:49;17.90;99.90
12815;DHT22;6472;52.328;13.070;2022-08-23T06:17:18;17.90;99.90
12815;DHT22;6472;52.328;13.070;2022-08-23T06:19:46;17.90;99.90
12815;DHT22;6472;52.328;13.070;2022-08-23T06:22:14;18.00;99.90
12815;DHT22;6472;52.328;13.070;2022-08-23T06:24:42;18.10;99.90
12815;DHT22;6472;52.328;13.070;2022-08-23T06:27:12;18.10;99.90
12815;DHT22;6472;52.328;13.070;2022-08-23T06:29:40;18.20;99.90
12815;DHT22;6472;52.328;13.070;2022-08-23T06:32:08;18.20;99.90
12815;DHT22;6472;52.328;13.070;2022-08-23T06:34:37;18.30;99.90
12815;DHT22;6472;52.328;13.070;2022-08-23T06:37:08;18.30;99.90
12815;DHT22;6472;52.328;13.070;2022-08-23T06:39:37;18.40;99.90
12815;DHT22;6472;52.328;13.070;2022-08-23T06:42:07;18.50;99.90
12815;DHT22;6472;52.328;13.070;2022-08-23T06:44:57;18.50;99.90
12815;DHT22;6472;52.328;13.070;2022-08-23T06:47:25;18.60;99.90
12815;DHT22;6472;52.328;13.070;2022-08-23T06:49:53;18.60;99.90
12815;DHT22;6472;52.328;13.070;2022-08-23T06:52:24;18.70;99.90
12815;DHT22;6472;52.328;13.070;2022-08-23T06:54:53;18.80;99.90
12815;DHT22;6472;52.328;13.070;2022-08-23T06:57:23;18.90;99.90
12815;DHT22;6472;52.328;13.070;2022-08-23T06:59:51;18.90;99.90
12815;DHT22;6472;52.328;13.070;2022-08-23T07:02:21;18.90;99.90
12815;DHT22;6472;52.328;13.070;2022-08-23T07:04:49;19.00;99.90
12815;DHT22;6472;52.328;13.070;2022-08-23T07:07:19;19.00;99.90
12815;DHT22;6472;52.328;13.070;2022-08-23T07:09:48;19.10;99.90
12815;DHT22;6472;52.328;13.070;2022-08-23T07:12:16;19.20;99.90
12815;DHT22;6472;52.328;13.070;2022-08-23T07:14:45;19.30;99.90
12815;DHT22;6472;52.328;13.070;2022-08-23T07:17:14;19.40;99.90
12815;DHT22;6472;52.328;13.070;2022-08-23T07:19:43;19.50;99.90
12815;DHT22;6472;52.328;13.070;2022-08-23T07:22:11;19.70;99.90
12815;DHT22;6472;52.328;13.070;2022-08-23T07:24:41;19.80;99.90
12815;DHT22;6472;52.328;13.070;2022-08-23T07:27:09;19.90;99.90
12815;DHT22;6472;52.328;13.070;2022-08-23T07:29:38;20.00;99.90
12815;DHT22;6472;52.328;13.070;2022-08-23T07:32:07;20.10;99.90
12815;DHT22;6472;52.328;13.070;2022-08-23T07:34:36;20.10;99.90
12815;DHT22;6472;52.328;13.070;2022-08-23T07:37:05;20.20;99.90
12815;DHT22;6472;52.328;13.070;2022-08-23T07:39:41;20.20;99.90
12815;DHT22;6472;52.328;13.070;2022-08-23T07:42:09;20.20;99.90
12815;DHT22;6472;52.328;13.070;2022-08-23T07:44:50;20.30;99.90
12815;DHT22;6472;52.328;13.070;2022-08-23T07:47:19;20.20;99.90
12815;DHT22;6472;52.328;13.070;2022-08-23T07:49:47;20.20;99.90
12815;DHT22;6472;52.328;13.070;2022-08-23T07:52:17;20.30;99.90
12815;DHT22;6472;52.328;13.070;2022-08-23T07:54:45;20.40;99.90
12815;DHT22;6472;52.328;13.070;2022-08-23T07:57:15;20.30;99.90
12815;DHT22;6472;52.328;13.070;2022-08-23T07:59:43;20.30;99.90
12815;DHT22;6472;52.328;13.070;2022-08-23T08:02:11;20.20;99.90
12815;DHT22;6472;52.328;13.070;2022-08-23T08:04:40;20.20;99.90
12815;DHT22;6472;52.328;13.070;2022-08-23T08:07:08;20.30;99.90
12815;DHT22;6472;52.328;13.070;2022-08-23T08:09:47;20.30;99.90
12815;DHT22;6472;52.328;13.070;2022-08-23T08:12:16;20.30;99.90
12815;DHT22;6472;52.328;13.070;2022-08-23T08:14:44;20.30;99.90
12815;DHT22;6472;52.328;13.070;2022-08-23T08:17:14;20.40;99.90
12815;DHT22;6472;52.328;13.070;2022-08-23T08:19:42;20.30;99.90
12815;DHT22;6472;52.328;13.070;2022-08-23T08:22:11;20.30;99.90
12815;DHT22;6472;52.328;13.070;2022-08-23T08:24:39;20.20;99.90
12815;DHT22;6472;52.328;13.070;2022-08-23T08:27:09;20.30;99.90
12815;DHT22;6472;52.328;13.070;2022-08-23T08:29:37;20.30;99.90
12815;DHT22;6472;52.328;13.070;2022-08-23T08:32:05;20.20;99.90
12815;DHT22;6472;52.328;13.070;2022-08-23T08:34:39;20.20;99.90
12815;DHT22;6472;52.328;13.070;2022-08-23T08:37:08;20.20;99.90
12815;DHT22;6472;52.328;13.070;2022-08-23T08:39:36;20.30;99.90
12815;DHT22;6472;52.328;13.070;2022-08-23T08:42:29;20.40;99.90
12815;DHT22;6472;52.328;13.070;2022-08-23T08:45:03;20.50;99.90
12815;DHT22;6472;52.328;13.070;2022-08-23T08:47:36;20.70;99.90
12815;DHT22;6472;52.328;13.070;2022-08-23T08:50:09;20.80;99.90
12815;DHT22;6472;52.328;13.070;2022-08-23T08:52:42;20.90;99.90
12815;DHT22;6472;52.328;13.070;2022-08-23T08:55:21;20.90;99.90
12815;DHT22;6472;52.328;13.070;2022-08-23T08:57:53;21.00;99.90
12815;DHT22;6472;52.328;13.070;2022-08-23T09:00:24;21.20;99.90
12815;DHT22;6472;52.328;13.070;2022-08-23T09:02:53;21.40;99.90
12815;DHT22;6472;52.328;13.070;2022-08-23T09:05:24;21.50;99.90
12815;DHT22;6472;52.328;13.070;2022-08-23T09:08:03;21.70;99.90
12815;DHT22;6472;52.328;13.070;2022-08-23T09:10:49;21.80;99.90
12815;DHT22;6472;52.328;13.070;2022-08-23T09:16:31;22.10;99.90
12815;DHT22;6472;52.328;13.070;2022-08-23T09:19:03;22.50;99.90
12815;DHT22;6472;52.328;13.070;2022-08-23T09:21:39;22.90;99.90
12815;DHT22;6472;52.328;13.070;2022-08-23T09:24:09;23.10;99.90
12815;DHT22;6472;52.328;13.070;2022-08-23T09:26:37;23.10;99.90
12815;DHT22;6472;52.328;13.070;2022-08-23T09:29:18;23.20;99.90
12815;DHT22;6472;52.328;13.070;2022-08-23T09:31:48;23.20;99.90
12815;DHT22;6472;52.328;13.070;2022-08-23T09:34:20;23.30;99.90
12815;DHT22;6472;52.328;13.070;2022-08-23T09:36:49;23.40;99.90
12815;DHT22;6472;52.328;13.070;2022-08-23T09:39:26;23.50;99.90
12815;DHT22;6472;52.328;13.070;2022-08-23T09:41:57;23.40;99.90
12815;DHT22;6472;52.328;13.070;2022-08-23T09:44:35;23.40;99.90
12815;DHT22;6472;52.328;13.070;2022-08-23T09:47:06;23.30;99.90
12815;DHT22;6472;52.328;13.070;2022-08-23T09:49:34;23.10;99.90
12815;DHT22;6472;52.328;13.070;2022-08-23T09:52:12;23.10;99.90
12815;DHT22;6472;52.328;13.070;2022-08-23T09:54:54;23.00;99.90
12815;DHT22;6472;52.328;13.070;2022-08-23T09:57:24;23.10;99.90
12815;DHT22;6472;52.328;13.070;2022-08-23T09:59:55;23.10;99.90
12815;DHT22;6472;52.328;13.070;2022-08-23T10:02:29;23.00;99.90
12815;DHT22;6472;52.328;13.070;2022-08-23T10:05:02;22.90;99.90
12815;DHT22;6472;52.328;13.070;2022-08-23T10:07:36;22.90;99.90
12815;DHT22;6472;52.328;13.070;2022-08-23T10:10:17;23.10;99.90
12815;DHT22;6472;52.328;13.070;2022-08-23T10:12:49;23.20;99.90
12815;DHT22;6472;52.328;13.070;2022-08-23T10:15:20;23.30;99.90
12815;DHT22;6472;52.328;13.070;2022-08-23T10:17:54;23.30;99.90
12815;DHT22;6472;52.328;13.070;2022-08-23T10:20:31;23.30;99.90
12815;DHT22;6472;52.328;13.070;2022-08-23T10:23:11;23.30;99.90
12815;DHT22;6472;52.328;13.070;2022-08-23T10:25:44;23.30;99.90
12815;DHT22;6472;52.328;13.070;2022-08-23T10:28:19;23.30;99.90
12815;DHT22;6472;52.328;13.070;2022-08-23T10:31:15;23.20;99.90
12815;DHT22;6472;52.328;13.070;2022-08-23T10:33:48;23.40;99.90
12815;DHT22;6472;52.328;13.070;2022-08-23T10:36:26;23.40;99.90
12815;DHT22;6472;52.328;13.070;2022-08-23T10:38:57;23.50;99.90
12815;DHT22;6472;52.328;13.070;2022-08-23T10:41:37;23.50;99.90
12815;DHT22;6472;52.328;13.070;2022-08-23T10:44:23;23.50;99.90
12815;DHT22;6472;52.328;13.070;2022-08-23T10:47:10;23.50;99.90
12815;DHT22;6472;52.328;13.070;2022-08-23T10:49:41;23.50;99.90
12815;DHT22;6472;52.328;13.070;2022-08-23T10:52:14;23.50;99.90
12815;DHT22;6472;52.328;13.070;2022-08-23T10:54:46;23.60;99.90
12815;DHT22;6472;52.328;13.070;2022-08-23T10:57:32;23.70;99.90
12815;DHT22;6472;52.328;13.070;2022-08-23T11:00:05;23.80;99.90
12815;DHT22;6472;52.328;13.070;2022-08-23T11:02:39;23.90;99.90
12815;DHT22;6472;52.328;13.070;2022-08-23T11:05:19;24.00;99.90
12815;DHT22;6472;52.328;13.070;2022-08-23T11:08:00;24.20;99.90
12815;DHT22;6472;52.328;13.070;2022-08-23T11:10:44;24.20;99.90
12815;DHT22;6472;52.328;13.070;2022-08-23T11:13:24;24.10;99.90
12815;DHT22;6472;52.328;13.070;2022-08-23T11:15:57;24.00;99.90
12815;DHT22;6472;52.328;13.070;2022-08-23T11:18:40;24.20;99.90
12815;DHT22;6472;52.328;13.070;2022-08-23T11:21:43;24.20;99.90
12815;DHT22;6472;52.328;13.070;2022-08-23T11:27:28;24.20;99.90
12815;DHT22;6472;52.328;13.070;2022-08-23T11:29:58;24.20;99.90
12815;DHT22;6472;52.328;13.070;2022-08-23T11:32:46;24.30;99.90
12815;DHT22;6472;52.328;13.070;2022-08-23T11:35:37;24.40;99.90
12815;DHT22;6472;52.328;13.070;2022-08-23T11:38:11;24.40;99.90
12815;DHT22;6472;52.328;13.070;2022-08-23T11:40:56;24.40;99.90
12815;DHT22;6472;52.328;13.070;2022-08-23T11:43:29;24.40;99.90
12815;DHT22;6472;52.328;13.070;2022-08-23T11:49:22;24.50;99.90
12815;DHT22;6472;52.328;13.070;2022-08-23T11:52:02;24.60;99.90
12815;DHT22;6472;52.328;13.070;2022-08-23T11:54:55;24.50;99.90
12815;DHT22;6472;52.328;13.070;2022-08-23T11:57:35;24.60;99.90
12815;DHT22;6472;52.328;13.070;2022-08-23T12:00:17;24.60;99.90
12815;DHT22;6472;52.328;13.070;2022-08-23T12:03:00;24.60;99.90
12815;DHT22;6472;52.328;13.070;2022-08-23T12:08:44;24.60;97.60
12815;DHT22;6472;52.328;13.070;2022-08-23T12:11:17;24.60;97.60
12815;DHT22;6472;52.328;13.070;2022-08-23T12:13:53;24.80;97.00
12815;DHT22;6472;52.328;13.070;2022-08-23T12:16:33;24.80;98.00
12815;DHT22;6472;52.328;13.070;2022-08-23T12:19:06;24.60;97.40
12815;DHT22;6472;52.328;13.070;2022-08-23T12:21:43;24.50;98.20
12815;DHT22;6472;52.328;13.070;2022-08-23T12:24:15;24.50;97.80
12815;DHT22;6472;52.328;13.070;2022-08-23T12:26:52;24.60;98.10
12815;DHT22;6472;52.328;13.070;2022-08-23T12:29:32;24.60;98.70
12815;DHT22;6472;52.328;13.070;2022-08-23T12:32:06;24.80;96.40
12815;DHT22;6472;52.328;13.070;2022-08-23T12:34:48;25.00;95.20
12815;DHT22;6472;52.328;13.070;2022-08-23T12:37:28;24.90;95.90
12815;DHT22;6472;52.328;13.070;2022-08-23T12:39:59;25.10;97.20
12815;DHT22;6472;52.328;13.070;2022-08-23T12:42:33;25.20;96.80
12815;DHT22;6472;52.328;13.070;2022-08-23T12:45:06;25.40;95.30
12815;DHT22;6472;52.328;13.070;2022-08-23T12:47:34;25.60;95.10
12815;DHT22;6472;52.328;13.070;2022-08-23T12:50:25;26.00;94.60
12815;DHT22;6472;52.328;13.070;2022-08-23T12:53:00;26.20;94.20
12815;DHT22;6472;52.328;13.070;2022-08-23T12:55:32;26.30;92.40
12815;DHT22;6472;52.328;13.070;2022-08-23T12:58:03;26.40;92.80
12815;DHT22;6472;52.328;13.070;2022-08-23T13:00:33;26.20;90.70
12815;DHT22;6472;52.328;13.070;2022-08-23T13:03:05;26.00;91.20
12815;DHT22;6472;52.328;13.070;2022-08-23T13:05:37;26.00;91.70
12815;DHT22;6472;52.328;13.070;2022-08-23T13:08:10;26.10;92.60
12815;DHT22;6472;52.328;13.070;2022-08-23T13:10:40;26.10;91.00
12815;DHT22;6472;52.328;13.070;2022-08-23T13:13:13;26.20;92.20
12815;DHT22;6472;52.328;13.070;2022-08-23T13:15:49;26.60;90.00
12815;DHT22;6472;52.328;13.070;2022-08-23T13:18:31;26.80;91.20
12815;DHT22;6472;52.328;13.070;2022-08-23T13:21:22;26.60;89.50
12815;DHT22;6472;52.328;13.070;2022-08-23T13:23:54;26.30;88.90
12815;DHT22;6472;52.328;13.070;2022-08-23T13:26:33;25.80;90.40
12815;DHT22;6472;52.328;13.070;2022-08-23T13:29:10;25.50;92.00
12815;DHT22;6472;52.328;13.070;2022-08-23T13:31:57;25.60;91.30
12815;DHT22;6472;52.328;13.070;2022-08-23T13:34:35;25.90;91.20
12815;DHT22;6472;52.328;13.070;2022-08-23T13:37:15;26.10;91.10
12815;DHT22;6472;52.328;13.070;2022-08-23T13:39:46;26.20;88.90
12815;DHT22;6472;52.328;13.070;2022-08-23T13:42:29;26.10;90.70
12815;DHT22;6472;52.328;13.070;2022-08-23T13:45:08;26.10;90.20
12815;DHT22;6472;52.328;13.070;2022-08-23T13:47:36;26.40;90.20
12815;DHT22;6472;52.328;13.070;2022-08-23T13:50:14;26.80;88.30
12815;DHT22;6472;52.328;13.070;2022-08-23T13:52:43;27.10;88.00
12815;DHT22;6472;52.328;13.070;2022-08-23T13:55:33;27.40;86.30
12815;DHT22;6472;52.328;13.070;2022-08-23T13:58:09;27.50;86.50
12815;DHT22;6472;52.328;13.070;2022-08-23T14:00:39;27.30;82.60
12815;DHT22;6472;52.328;13.070;2022-08-23T14:03:27;27.20;81.30
12815;DHT22;6472;52.328;13.070;2022-08-23T14:05:56;26.70;83.70
12815;DHT22;6472;52.328;13.070;2022-08-23T14:08:24;26.40;84.50
12815;DHT22;6472;52.328;13.070;2022-08-23T14:10:53;26.30;85.30
12815;DHT22;6472;52.328;13.070;2022-08-23T14:13:23;26.30;85.90
12815;DHT22;6472;52.328;13.070;2022-08-23T14:15:56;26.00;85.50
12815;DHT22;6472;52.328;13.070;2022-08-23T14:18:45;26.10;87.10
12815;DHT22;6472;52.328;13.070;2022-08-23T14:21:33;26.30;84.90
12815;DHT22;6472;52.328;13.070;2022-08-23T14:24:01;26.60;83.90
12815;DHT22;6472;52.328;13.070;2022-08-23T14:26:29;26.80;82.90
12815;DHT22;6472;52.328;13.070;2022-08-23T14:28:58;27.00;82.60
12815;DHT22;6472;52.328;13.070;2022-08-23T14:31:28;27.20;83.90
12815;DHT22;6472;52.328;13.070;2022-08-23T14:33:56;27.30;83.00
12815;DHT22;6472;52.328;13.070;2022-08-23T14:36:28;27.30;82.20
12815;DHT22;6472;52.328;13.070;2022-08-23T14:38:56;27.30;80.60
12815;DHT22;6472;52.328;13.070;2022-08-23T14:41:25;27.10;79.50
12815;DHT22;6472;52.328;13.070;2022-08-23T14:43:54;26.40;81.80
12815;DHT22;6472;52.328;13.070;2022-08-23T14:46:23;26.30;82.70
12815;DHT22;6472;52.328;13.070;2022-08-23T14:48:52;26.20;83.30
12815;DHT22;6472;52.328;13.070;2022-08-23T14:51:24;26.10;83.50
12815;DHT22;6472;52.328;13.070;2022-08-23T14:53:53;25.80;83.80
12815;DHT22;6472;52.328;13.070;2022-08-23T14:56:22;25.60;85.30
12815;DHT22;6472;52.328;13.070;2022-08-23T14:58:50;25.60;86.70
12815;DHT22;6472;52.328;13.070;2022-08-23T15:01:19;25.80;85.80
12815;DHT22;6472;52.328;13.070;2022-08-23T15:03:48;26.00;84.90
12815;DHT22;6472;52.328;13.070;2022-08-23T15:06:20;26.10;84.60
12815;DHT22;6472;52.328;13.070;2022-08-23T15:08:48;26.40;82.10
12815;DHT22;6472;52.328;13.070;2022-08-23T15:11:16;26.40;82.50
12815;DHT22;6472;52.328;13.070;2022-08-23T15:14:04;26.40;82.80
12815;DHT22;6472;52.328;13.070;2022-08-23T15:16:32;26.30;82.50
12815;DHT22;6472;52.328;13.070;2022-08-23T15:19:01;26.10;83.50
12815;DHT22;6472;52.328;13.070;2022-08-23T15:21:32;25.90;84.50
12815;DHT22;6472;52.328;13.070;2022-08-23T15:24:00;25.80;85.40
12815;DHT22;6472;52.328;13.070;2022-08-23T15:26:29;25.70;85.20
12815;DHT22;6472;52.328;13.070;2022-08-23T15:28:58;25.60;84.60
12815;DHT22;6472;52.328;13.070;2022-08-23T15:31:26;25.60;85.90
12815;DHT22;6472;52.328;13.070;2022-08-23T15:33:55;25.60;85.00
12815;DHT22;6472;52.328;13.070;2022-08-23T15:36:23;25.50;85.10
12815;DHT22;6472;52.328;13.070;2022-08-23T15:38:52;25.40;86.40
12815;DHT22;6472;52.328;13.070;2022-08-23T15:41:20;25.30;84.90
12815;DHT22;6472;52.328;13.070;2022-08-23T15:43:48;25.30;85.50
12815;DHT22;6472;52.328;13.070;2022-08-23T15:46:19;25.20;85.70
12815;DHT22;6472;52.328;13.070;2022-08-23T15:48:52;25.10;89.60
12815;DHT22;6472;52.328;13.070;2022-08-23T15:51:23;25.10;87.10
12815;DHT22;6472;52.328;13.070;2022-08-23T15:53:52;25.20;88.40
12815;DHT22;6472;52.328;13.070;2022-08-23T15:56:27;25.10;87.80
12815;DHT22;6472;52.328;13.070;2022-08-23T15:58:57;25.20;85.30
12815;DHT22;6472;52.328;13.070;2022-08-23T16:01:25;25.10;83.70
12815;DHT22;6472;52.328;13.070;2022-08-23T16:03:56;25.10;84.70
12815;DHT22;6472;52.328;13.070;2022-08-23T16:06:28;25.00;85.10
12815;DHT22;6472;52.328;13.070;2022-08-23T16:09:04;24.90;86.90
12815;DHT22;6472;52.328;13.070;2022-08-23T16:11:33;24.90;86.30
12815;DHT22;6472;52.328;13.070;2022-08-23T16:14:00;24.90;85.60